createdAt,value
2023-05-18T00:01:06.402Z,19.43
2023-05-18T00:02:16.302Z,19.51
2023-05-18T00:05:44.841Z,19.52
2023-05-18T00:08:41.486Z,19.55
2023-05-18T00:15:25.191Z,19.48
2023-05-18T00:51:17.285Z,19.27
2023-05-18T00:59:25.474Z,19.45
2023-05-18T01:02:16.118Z,19.33
2023-05-18T01:05:31.910Z,19.39
2023-05-18T01:08:51.753Z,19.21
2023-05-18T01:12:08.896Z,19.28
2023-05-18T01:15:45.702Z,19.22
2023-05-18T01:19:09.610Z,19.21
2023-05-18T01:22:49.956Z,19.16
2023-05-18T01:25:43.700Z,19.27
2023-05-18T01:29:10.820Z,19.23
2023-05-18T01:32:10.892Z,19.11
2023-05-18T01:35:03.404Z,19.09
2023-05-18T01:37:51.754Z,19.15
2023-05-18T01:40:53.900Z,19.18
2023-05-18T01:44:14.612Z,19.00
2023-05-18T01:47:35.852Z,19.01
2023-05-18T01:50:44.078Z,19.04
2023-05-18T01:53:50.286Z,18.97
2023-05-18T01:56:47.111Z,19.15
2023-05-18T01:59:37.705Z,19.15
2023-05-18T02:02:54.496Z,19.13
2023-05-18T02:09:13.391Z,19.00
2023-05-18T02:12:13.429Z,18.93
2023-05-18T02:15:09.209Z,18.99
2023-05-18T02:18:17.771Z,18.96
2023-05-18T02:21:26.444Z,18.96
2023-05-18T02:24:21.199Z,19.01
2023-05-18T02:27:28.971Z,18.97
2023-05-18T02:30:40.309Z,18.88
2023-05-18T02:33:48.793Z,18.90
2023-05-18T02:40:25.122Z,18.79
2023-05-18T02:43:25.717Z,18.95
2023-05-18T02:46:24.852Z,18.83
2023-05-18T02:49:28.365Z,18.96
2023-05-18T02:52:55.986Z,18.92
2023-05-18T02:55:57.465Z,18.89
2023-05-18T02:59:01.105Z,18.91
2023-05-18T03:02:03.508Z,18.93
2023-05-18T03:04:54.793Z,18.84
2023-05-18T03:07:46.398Z,18.92
2023-05-18T03:10:38.805Z,18.90
2023-05-18T03:13:35.775Z,18.77
2023-05-18T03:16:32.772Z,18.86
2023-05-18T03:19:33.788Z,18.80
2023-05-18T03:22:37.672Z,18.73
2023-05-18T03:26:02.564Z,18.68
2023-05-18T03:29:48.020Z,18.76
2023-05-18T03:32:41.241Z,18.54
2023-05-18T03:35:55.687Z,18.71
2023-05-18T03:38:48.441Z,18.70
2023-05-18T03:41:41.335Z,18.59
2023-05-18T03:44:46.448Z,18.63
2023-05-18T03:47:37.945Z,18.55
2023-05-18T03:50:29.551Z,18.63
2023-05-18T03:53:29.198Z,18.52
2023-05-18T03:56:44.723Z,18.49
2023-05-18T03:59:38.000Z,18.63
2023-05-18T04:02:33.654Z,18.63
2023-05-18T04:05:42.025Z,18.43
2023-05-18T04:09:14.073Z,18.49
2023-05-18T04:12:12.823Z,18.41
2023-05-18T04:19:08.148Z,18.54
2023-05-18T04:21:58.710Z,18.54
2023-05-18T04:24:54.404Z,18.48
2023-05-18T04:27:51.845Z,18.34
2023-05-18T04:30:46.600Z,18.43
2023-05-18T04:34:06.063Z,18.26
2023-05-18T04:37:13.796Z,18.44
2023-05-18T04:40:13.191Z,18.55
2023-05-18T04:43:12.620Z,18.43
2023-05-18T04:54:56.977Z,18.39
2023-05-18T04:58:13.457Z,18.37
2023-05-18T05:02:14.024Z,18.39
2023-05-18T05:05:23.508Z,18.37
2023-05-18T05:19:48.096Z,18.16
2023-05-18T05:32:26.452Z,18.30
2023-05-18T05:40:04.381Z,18.34
2023-05-18T05:42:59.167Z,18.24
2023-05-18T05:46:07.708Z,18.39
2023-05-18T05:49:26.645Z,18.34
2023-05-18T05:52:27.595Z,18.42
2023-05-18T05:55:23.928Z,18.30
2023-05-18T05:58:16.221Z,18.34
2023-05-18T06:01:47.064Z,18.43
2023-05-18T06:05:16.790Z,18.33
2023-05-18T06:08:09.454Z,18.41
2023-05-18T06:14:45.963Z,18.30
2023-05-18T06:18:30.609Z,18.28
2023-05-18T06:22:08.901Z,18.13
2023-05-18T06:25:53.283Z,18.21
2023-05-18T06:30:19.768Z,18.13
2023-05-18T06:33:50.817Z,18.01
2023-05-18T06:40:57.022Z,18.01
2023-05-18T06:45:08.119Z,17.97
2023-05-18T06:48:56.120Z,18.07
2023-05-18T06:55:39.796Z,18.04
2023-05-18T06:58:47.755Z,17.93
2023-05-18T07:01:50.404Z,18.06
2023-05-18T07:04:41.990Z,18.08
2023-05-18T07:08:26.088Z,17.94
2023-05-18T07:11:13.217Z,18.15
2023-05-18T07:15:13.169Z,17.94
2023-05-18T07:18:00.050Z,18.21
2023-05-18T07:24:18.144Z,18.17
2023-05-18T07:31:59.596Z,18.14
2023-05-18T07:35:09.846Z,18.14
2023-05-18T07:41:32.183Z,18.03
2023-05-18T07:44:52.695Z,17.99
2023-05-18T07:51:20.113Z,17.99
2023-05-18T07:54:09.333Z,18.21
2023-05-18T07:57:00.337Z,18.16
2023-05-18T08:00:32.240Z,18.10
2023-05-18T08:03:32.305Z,18.19
2023-05-18T08:06:18.840Z,18.08
2023-05-18T08:12:41.702Z,18.08
2023-05-18T08:15:28.296Z,18.15
2023-05-18T08:18:42.316Z,18.14
2023-05-18T08:29:12.398Z,18.08
2023-05-18T08:44:12.451Z,18.16
2023-05-18T09:10:57.860Z,18.06
2023-05-18T09:14:16.637Z,17.82
2023-05-18T09:17:22.177Z,17.97
2023-05-18T09:20:18.901Z,17.98
2023-05-18T09:23:12.591Z,18.03
2023-05-18T09:26:10.502Z,18.03
2023-05-18T09:29:28.097Z,17.94
2023-05-18T09:32:25.037Z,17.96
2023-05-18T09:35:37.616Z,17.99
2023-05-18T09:41:49.467Z,17.96
2023-05-18T09:44:54.162Z,18.06
2023-05-18T09:48:07.878Z,17.96
2023-05-18T09:51:27.535Z,18.03
2023-05-18T09:55:17.456Z,17.96
2023-05-18T10:02:17.962Z,17.91
2023-05-18T10:05:36.035Z,18.00
2023-05-18T10:08:23.719Z,17.90
2023-05-18T10:11:10.562Z,18.05
2023-05-18T10:13:58.872Z,18.02
2023-05-18T10:16:45.357Z,18.05
2023-05-18T10:19:35.971Z,17.97
2023-05-18T10:22:23.563Z,17.98
2023-05-18T10:28:18.626Z,18.04
2023-05-18T10:31:27.266Z,17.94
2023-05-18T10:39:37.246Z,17.97
2023-05-18T10:43:33.308Z,18.02
2023-05-18T10:46:30.815Z,18.06
2023-05-18T10:49:18.241Z,17.96
2023-05-18T10:52:05.229Z,18.05
2023-05-18T10:55:35.209Z,18.03
2023-05-18T11:08:51.506Z,18.02
2023-05-18T11:21:19.391Z,17.89
2023-05-18T11:29:14.089Z,18.08
2023-05-18T11:32:04.829Z,17.96
2023-05-18T11:35:05.589Z,17.98
2023-05-18T11:38:52.157Z,18.05
2023-05-18T11:42:14.844Z,17.87
2023-05-18T11:51:34.022Z,17.87
2023-05-18T11:55:32.396Z,17.99
2023-05-18T20:10:56.980Z,17.58
2023-05-18T20:14:21.326Z,17.50
2023-05-18T20:17:11.632Z,17.66
2023-05-18T20:20:05.026Z,17.64
2023-05-18T20:22:51.990Z,17.65
2023-05-18T20:25:51.037Z,17.55
2023-05-18T20:28:59.351Z,17.54
2023-05-18T20:31:52.202Z,17.55
2023-05-18T20:34:49.439Z,17.63
2023-05-18T20:37:57.220Z,17.64
2023-05-18T20:40:55.326Z,17.64
2023-05-18T20:43:48.304Z,17.55
2023-05-18T20:47:26.240Z,17.43
2023-05-18T20:50:31.226Z,17.58
2023-05-18T20:54:14.159Z,17.44
2023-05-18T20:57:04.790Z,17.53
2023-05-18T20:59:58.154Z,17.39
2023-05-18T21:02:58.287Z,17.50
2023-05-18T21:10:18.059Z,17.52
2023-05-18T21:13:09.161Z,17.42
2023-05-18T21:15:57.037Z,17.43
2023-05-18T21:18:48.404Z,17.38
2023-05-18T21:21:46.277Z,17.36
2023-05-18T21:24:32.980Z,17.27
2023-05-18T21:27:19.176Z,17.31
2023-05-18T21:30:08.523Z,17.44
2023-05-18T21:32:58.236Z,17.40
2023-05-18T21:35:44.550Z,17.32
2023-05-18T21:38:31.334Z,17.30
2023-05-18T21:41:18.251Z,17.30
2023-05-18T21:44:05.200Z,17.31
2023-05-18T21:46:57.056Z,17.17
2023-05-18T21:49:44.367Z,17.13
2023-05-18T21:52:33.278Z,17.26
2023-05-18T21:55:19.959Z,17.20
2023-05-18T21:58:06.540Z,17.14
2023-05-18T22:00:52.947Z,17.18
2023-05-18T22:03:46.918Z,17.18
2023-05-18T22:06:34.238Z,17.19
2023-05-18T22:09:22.154Z,17.15
2023-05-18T22:12:11.605Z,17.19
2023-05-18T22:14:58.280Z,17.28
2023-05-18T22:17:46.211Z,17.19
2023-05-18T22:20:33.065Z,17.27
2023-05-18T22:23:19.973Z,17.16
2023-05-18T22:26:06.372Z,17.27
2023-05-18T22:28:52.705Z,17.21
2023-05-18T22:31:39.133Z,17.31
2023-05-18T22:34:25.437Z,17.26
2023-05-18T22:37:11.841Z,17.28
2023-05-18T22:39:58.244Z,17.30
2023-05-18T22:42:45.090Z,17.20
2023-05-18T22:45:37.604Z,17.14
2023-05-18T22:48:26.382Z,17.19
2023-05-18T22:51:12.708Z,17.27
2023-05-18T22:53:59.237Z,17.25
2023-05-18T22:56:46.585Z,17.17
2023-05-18T22:59:33.816Z,17.10
2023-05-18T23:02:20.059Z,17.25
2023-05-18T23:05:07.126Z,17.16
2023-05-18T23:07:58.063Z,17.13
2023-05-18T23:10:45.258Z,17.23
2023-05-18T23:13:33.028Z,17.18
2023-05-18T23:16:20.751Z,17.30
2023-05-18T23:19:09.665Z,17.18
2023-05-18T23:21:56.649Z,17.23
2023-05-18T23:24:43.610Z,17.24
2023-05-18T23:27:30.312Z,17.29
2023-05-18T23:30:16.839Z,17.13
2023-05-18T23:33:03.813Z,17.18
2023-05-18T23:35:51.103Z,17.29
2023-05-18T23:38:38.137Z,17.33
2023-05-18T23:41:35.196Z,17.24
2023-05-18T23:44:31.635Z,17.21
2023-05-18T23:47:18.909Z,17.22
2023-05-18T23:50:06.598Z,17.27
2023-05-18T23:52:54.365Z,17.32
2023-05-18T23:55:41.789Z,17.34
2023-05-18T23:58:32.439Z,17.24
